sensor_id;sensor_type;location;lat;lon;timestamp;temperature;humidity
12632;DHT22;6381;45.748;12.106;2023-01-15T00:00:15;8.10;98.20
12632;DHT22;6381;45.748;12.106;2023-01-15T00:02:46;7.70;98.40
12632;DHT22;6381;45.748;12.106;2023-01-15T00:05:16;7.80;98.50
12632;DHT22;6381;45.748;12.106;2023-01-15T00:07:46;7.80;98.60
12632;DHT22;6381;45.748;12.106;2023-01-15T00:10:17;7.70;98.70
12632;DHT22;6381;45.748;12.106;2023-01-15T00:12:50;7.90;98.70
12632;DHT22;6381;45.748;12.106;2023-01-15T00:15:20;8.00;98.90
12632;DHT22;6381;45.748;12.106;2023-01-15T00:17:51;8.00;99.20
12632;DHT22;6381;45.748;12.106;2023-01-15T00:20:21;8.00;98.80
12632;DHT22;6381;45.748;12.106;2023-01-15T00:22:52;8.10;99.00
12632;DHT22;6381;45.748;12.106;2023-01-15T00:25:22;8.10;99.00
12632;DHT22;6381;45.748;12.106;2023-01-15T00:28:12;8.20;99.00
12632;DHT22;6381;45.748;12.106;2023-01-15T00:30:45;8.10;98.60
12632;DHT22;6381;45.748;12.106;2023-01-15T00:33:16;8.00;98.80
12632;DHT22;6381;45.748;12.106;2023-01-15T00:35:48;7.90;99.00
12632;DHT22;6381;45.748;12.106;2023-01-15T00:38:18;7.80;99.20
12632;DHT22;6381;45.748;12.106;2023-01-15T00:40:48;7.90;99.30
12632;DHT22;6381;45.748;12.106;2023-01-15T00:43:22;7.90;98.80
12632;DHT22;6381;45.748;12.106;2023-01-15T00:45:52;7.90;99.00
12632;DHT22;6381;45.748;12.106;2023-01-15T00:48:22;7.80;99.20
12632;DHT22;6381;45.748;12.106;2023-01-15T00:50:53;7.80;99.10
12632;DHT22;6381;45.748;12.106;2023-01-15T00:53:23;7.70;99.20
12632;DHT22;6381;45.748;12.106;2023-01-15T00:55:53;7.80;99.60
12632;DHT22;6381;45.748;12.106;2023-01-15T00:58:25;7.80;99.40
12632;DHT22;6381;45.748;12.106;2023-01-15T01:00:56;7.80;99.50
12632;DHT22;6381;45.748;12.106;2023-01-15T01:03:28;7.80;99.50
12632;DHT22;6381;45.748;12.106;2023-01-15T01:06:01;7.80;99.50
12632;DHT22;6381;45.748;12.106;2023-01-15T01:08:32;7.80;99.50
12632;DHT22;6381;45.748;12.106;2023-01-15T01:11:04;7.80;99.50
12632;DHT22;6381;45.748;12.106;2023-01-15T01:13:37;7.80;99.50
12632;DHT22;6381;45.748;12.106;2023-01-15T01:16:22;7.80;99.40
12632;DHT22;6381;45.748;12.106;2023-01-15T01:18:53;7.90;99.30
12632;DHT22;6381;45.748;12.106;2023-01-15T01:21:23;8.00;99.30
12632;DHT22;6381;45.748;12.106;2023-01-15T01:23:54;8.30;99.20
12632;DHT22;6381;45.748;12.106;2023-01-15T01:26:24;8.10;99.00
12632;DHT22;6381;45.748;12.106;2023-01-15T01:28:57;8.10;99.00
12632;DHT22;6381;45.748;12.106;2023-01-15T01:31:27;8.10;99.00
12632;DHT22;6381;45.748;12.106;2023-01-15T01:33:59;7.90;99.20
12632;DHT22;6381;45.748;12.106;2023-01-15T01:36:31;8.30;99.30
12632;DHT22;6381;45.748;12.106;2023-01-15T01:39:12;8.10;98.90
12632;DHT22;6381;45.748;12.106;2023-01-15T01:41:44;8.10;98.90
12632;DHT22;6381;45.748;12.106;2023-01-15T01:44:59;8.00;99.00
12632;DHT22;6381;45.748;12.106;2023-01-15T01:47:31;8.10;99.10
12632;DHT22;6381;45.748;12.106;2023-01-15T01:50:07;8.20;99.30
12632;DHT22;6381;45.748;12.106;2023-01-15T01:52:42;8.40;99.20
12632;DHT22;6381;45.748;12.106;2023-01-15T01:55:13;8.50;99.10
12632;DHT22;6381;45.748;12.106;2023-01-15T01:57:47;8.30;99.40
12632;DHT22;6381;45.748;12.106;2023-01-15T02:00:22;8.30;98.90
12632;DHT22;6381;45.748;12.106;2023-01-15T02:02:53;8.20;98.90
12632;DHT22;6381;45.748;12.106;2023-01-15T02:05:28;8.50;99.40
12632;DHT22;6381;45.748;12.106;2023-01-15T02:07:59;8.40;99.50
12632;DHT22;6381;45.748;12.106;2023-01-15T02:10:30;8.40;99.30
12632;DHT22;6381;45.748;12.106;2023-01-15T02:13:06;8.50;99.80
12632;DHT22;6381;45.748;12.106;2023-01-15T02:15:42;8.40;99.10
12632;DHT22;6381;45.748;12.106;2023-01-15T02:18:19;8.40;99.40
12632;DHT22;6381;45.748;12.106;2023-01-15T02:20:55;8.60;99.50
12632;DHT22;6381;45.748;12.106;2023-01-15T02:23:47;8.60;99.30
12632;DHT22;6381;45.748;12.106;2023-01-15T02:29:40;8.40;99.80
12632;DHT22;6381;45.748;12.106;2023-01-15T02:32:16;8.20;99.90
12632;DHT22;6381;45.748;12.106;2023-01-15T02:34:51;8.40;99.90
12632;DHT22;6381;45.748;12.106;2023-01-15T02:37:25;8.40;99.90
12632;DHT22;6381;45.748;12.106;2023-01-15T02:39:59;8.30;99.90
12632;DHT22;6381;45.748;12.106;2023-01-15T02:42:34;8.40;99.90
12632;DHT22;6381;45.748;12.106;2023-01-15T02:45:10;8.40;99.90
12632;DHT22;6381;45.748;12.106;2023-01-15T02:47:43;8.30;99.80
12632;DHT22;6381;45.748;12.106;2023-01-15T02:50:22;8.20;99.70
12632;DHT22;6381;45.748;12.106;2023-01-15T02:52:58;8.20;99.50
12632;DHT22;6381;45.748;12.106;2023-01-15T02:55:37;8.20;99.40
12632;DHT22;6381;45.748;12.106;2023-01-15T02:58:13;8.30;99.30
12632;DHT22;6381;45.748;12.106;2023-01-15T03:00:51;8.20;99.20
12632;DHT22;6381;45.748;12.106;2023-01-15T03:03:33;8.20;99.30
12632;DHT22;6381;45.748;12.106;2023-01-15T03:06:09;8.20;99.30
12632;DHT22;6381;45.748;12.106;2023-01-15T03:08:42;8.30;99.20
12632;DHT22;6381;45.748;12.106;2023-01-15T03:11:14;8.50;99.30
12632;DHT22;6381;45.748;12.106;2023-01-15T03:13:53;8.50;99.30
12632;DHT22;6381;45.748;12.106;2023-01-15T03:16:32;8.60;99.50
12632;DHT22;6381;45.748;12.106;2023-01-15T03:19:12;8.50;99.60
12632;DHT22;6381;45.748;12.106;2023-01-15T03:21:50;8.30;99.90
12632;DHT22;6381;45.748;12.106;2023-01-15T03:24:30;8.30;99.90
12632;DHT22;6381;45.748;12.106;2023-01-15T03:27:03;8.20;99.90
12632;DHT22;6381;45.748;12.106;2023-01-15T03:29:38;8.30;99.90
12632;DHT22;6381;45.748;12.106;2023-01-15T03:32:10;8.30;99.90
12632;DHT22;6381;45.748;12.106;2023-01-15T03:34:44;8.30;99.90
12632;DHT22;6381;45.748;12.106;2023-01-15T03:37:19;8.20;99.90
12632;DHT22;6381;45.748;12.106;2023-01-15T03:39:51;8.00;99.90
12632;DHT22;6381;45.748;12.106;2023-01-15T03:42:32;7.90;99.90
12632;DHT22;6381;45.748;12.106;2023-01-15T03:45:10;7.70;99.90
12632;DHT22;6381;45.748;12.106;2023-01-15T03:47:52;7.60;99.90
12632;DHT22;6381;45.748;12.106;2023-01-15T03:50:34;7.70;99.90
12632;DHT22;6381;45.748;12.106;2023-01-15T03:53:12;7.80;99.90
12632;DHT22;6381;45.748;12.106;2023-01-15T03:56:02;7.70;99.90
12632;DHT22;6381;45.748;12.106;2023-01-15T03:58:42;7.80;99.90
12632;DHT22;6381;45.748;12.106;2023-01-15T04:01:19;7.80;99.90
12632;DHT22;6381;45.748;12.106;2023-01-15T04:03:53;7.80;99.90
12632;DHT22;6381;45.748;12.106;2023-01-15T04:06:28;7.80;99.90
12632;DHT22;6381;45.748;12.106;2023-01-15T04:09:00;7.80;99.90
12632;DHT22;6381;45.748;12.106;2023-01-15T04:11:34;7.90;99.90
12632;DHT22;6381;45.748;12.106;2023-01-15T04:14:06;7.80;99.90
12632;DHT22;6381;45.748;12.106;2023-01-15T04:16:47;7.80;99.90
12632;DHT22;6381;45.748;12.106;2023-01-15T04:19:19;7.80;99.90
12632;DHT22;6381;45.748;12.106;2023-01-15T04:21:58;7.80;99.90
12632;DHT22;6381;45.748;12.106;2023-01-15T04:24:29;7.80;99.90
12632;DHT22;6381;45.748;12.106;2023-01-15T04:26:59;8.00;99.90
12632;DHT22;6381;45.748;12.106;2023-01-15T04:29:29;8.00;99.90
12632;DHT22;6381;45.748;12.106;2023-01-15T04:31:59;7.90;99.90
12632;DHT22;6381;45.748;12.106;2023-01-15T04:34:31;7.80;99.90
12632;DHT22;6381;45.748;12.106;2023-01-15T04:37:03;7.60;99.90
12632;DHT22;6381;45.748;12.106;2023-01-15T04:39:33;7.70;99.90
12632;DHT22;6381;45.748;12.106;2023-01-15T04:42:03;7.80;99.90
12632;DHT22;6381;45.748;12.106;2023-01-15T04:44:50;7.90;99.90
12632;DHT22;6381;45.748;12.106;2023-01-15T04:47:20;8.00;99.90
12632;DHT22;6381;45.748;12.106;2023-01-15T04:49:52;7.90;99.90
12632;DHT22;6381;45.748;12.106;2023-01-15T04:52:23;7.70;99.90
12632;DHT22;6381;45.748;12.106;2023-01-15T04:54:54;7.80;99.90
12632;DHT22;6381;45.748;12.106;2023-01-15T04:57:25;8.00;99.90
12632;DHT22;6381;45.748;12.106;2023-01-15T04:59:55;7.90;99.90
12632;DHT22;6381;45.748;12.106;2023-01-15T05:02:26;7.70;99.90
12632;DHT22;6381;45.748;12.106;2023-01-15T05:04:58;8.00;99.90
12632;DHT22;6381;45.748;12.106;2023-01-15T05:07:28;7.80;99.90
12632;DHT22;6381;45.748;12.106;2023-01-15T05:09:58;7.80;99.90
12632;DHT22;6381;45.748;12.106;2023-01-15T05:12:28;7.90;99.90
12632;DHT22;6381;45.748;12.106;2023-01-15T05:14:59;7.60;99.90
12632;DHT22;6381;45.748;12.106;2023-01-15T05:17:31;7.30;99.90
12632;DHT22;6381;45.748;12.106;2023-01-15T05:20:04;7.60;99.90
12632;DHT22;6381;45.748;12.106;2023-01-15T05:22:35;7.60;99.90
12632;DHT22;6381;45.748;12.106;2023-01-15T05:25:06;7.60;99.90
12632;DHT22;6381;45.748;12.106;2023-01-15T05:27:36;7.40;99.90
12632;DHT22;6381;45.748;12.106;2023-01-15T05:30:08;7.50;99.90
12632;DHT22;6381;45.748;12.106;2023-01-15T05:32:39;7.50;99.90
12632;DHT22;6381;45.748;12.106;2023-01-15T05:35:13;7.40;99.90
12632;DHT22;6381;45.748;12.106;2023-01-15T05:37:43;7.30;99.90
12632;DHT22;6381;45.748;12.106;2023-01-15T05:40:17;7.30;99.90
12632;DHT22;6381;45.748;12.106;2023-01-15T05:42:47;7.30;99.90
12632;DHT22;6381;45.748;12.106;2023-01-15T05:45:17;7.30;99.90
12632;DHT22;6381;45.748;12.106;2023-01-15T05:47:47;7.00;99.90
12632;DHT22;6381;45.748;12.106;2023-01-15T05:50:20;7.00;99.90
12632;DHT22;6381;45.748;12.106;2023-01-15T05:52:50;6.90;99.90
12632;DHT22;6381;45.748;12.106;2023-01-15T05:55:21;6.90;99.90
12632;DHT22;6381;45.748;12.106;2023-01-15T05:57:51;6.90;99.90
12632;DHT22;6381;45.748;12.106;2023-01-15T06:00:22;7.20;99.90
12632;DHT22;6381;45.748;12.106;2023-01-15T06:02:54;7.20;99.90
12632;DHT22;6381;45.748;12.106;2023-01-15T06:05:26;7.10;99.90
12632;DHT22;6381;45.748;12.106;2023-01-15T06:07:56;7.20;99.90
12632;DHT22;6381;45.748;12.106;2023-01-15T06:10:28;7.00;99.90
12632;DHT22;6381;45.748;12.106;2023-01-15T06:12:58;6.90;99.90
12632;DHT22;6381;45.748;12.106;2023-01-15T06:15:28;6.90;99.90
12632;DHT22;6381;45.748;12.106;2023-01-15T06:17:58;6.90;99.90
12632;DHT22;6381;45.748;12.106;2023-01-15T06:20:30;6.90;99.90
12632;DHT22;6381;45.748;12.106;2023-01-15T06:23:01;6.90;99.90
12632;DHT22;6381;45.748;12.106;2023-01-15T06:25:32;7.20;99.90
12632;DHT22;6381;45.748;12.106;2023-01-15T06:28:04;7.30;99.90
12632;DHT22;6381;45.748;12.106;2023-01-15T06:30:37;7.30;99.90
12632;DHT22;6381;45.748;12.106;2023-01-15T06:33:07;7.40;99.90
12632;DHT22;6381;45.748;12.106;2023-01-15T06:35:39;7.20;99.90
12632;DHT22;6381;45.748;12.106;2023-01-15T06:38:09;7.20;99.90
12632;DHT22;6381;45.748;12.106;2023-01-15T06:40:40;7.10;99.90
12632;DHT22;6381;45.748;12.106;2023-01-15T06:43:10;7.40;99.90
12632;DHT22;6381;45.748;12.106;2023-01-15T06:45:58;7.30;99.90
12632;DHT22;6381;45.748;12.106;2023-01-15T06:48:49;7.50;99.90
12632;DHT22;6381;45.748;12.106;2023-01-15T06:51:21;7.50;99.90
12632;DHT22;6381;45.748;12.106;2023-01-15T06:53:51;7.40;99.90
12632;DHT22;6381;45.748;12.106;2023-01-15T06:56:21;7.50;99.90
12632;DHT22;6381;45.748;12.106;2023-01-15T06:58:51;7.60;99.90
12632;DHT22;6381;45.748;12.106;2023-01-15T07:01:23;7.60;99.90
12632;DHT22;6381;45.748;12.106;2023-01-15T07:03:58;7.70;99.90
12632;DHT22;6381;45.748;12.106;2023-01-15T07:06:30;7.90;99.90
12632;DHT22;6381;45.748;12.106;2023-01-15T07:09:01;7.80;99.90
12632;DHT22;6381;45.748;12.106;2023-01-15T07:11:31;7.80;99.90
12632;DHT22;6381;45.748;12.106;2023-01-15T07:14:01;7.70;99.90
12632;DHT22;6381;45.748;12.106;2023-01-15T07:16:37;7.60;99.90
12632;DHT22;6381;45.748;12.106;2023-01-15T07:19:09;7.70;99.90
12632;DHT22;6381;45.748;12.106;2023-01-15T07:21:41;7.70;99.90
12632;DHT22;6381;45.748;12.106;2023-01-15T07:24:13;7.70;99.90
12632;DHT22;6381;45.748;12.106;2023-01-15T07:26:43;7.60;99.90
12632;DHT22;6381;45.748;12.106;2023-01-15T07:29:15;7.60;99.90
12632;DHT22;6381;45.748;12.106;2023-01-15T07:31:47;7.70;99.90
12632;DHT22;6381;45.748;12.106;2023-01-15T07:34:18;7.50;99.90
12632;DHT22;6381;45.748;12.106;2023-01-15T07:36:51;7.50;99.90
12632;DHT22;6381;45.748;12.106;2023-01-15T07:39:23;7.60;99.90
12632;DHT22;6381;45.748;12.106;2023-01-15T07:41:53;7.50;99.90
12632;DHT22;6381;45.748;12.106;2023-01-15T07:44:44;7.70;99.90
12632;DHT22;6381;45.748;12.106;2023-01-15T07:47:32;7.60;99.90
12632;DHT22;6381;45.748;12.106;2023-01-15T07:50:22;8.00;99.90
12632;DHT22;6381;45.748;12.106;2023-01-15T07:52:55;8.00;99.90
12632;DHT22;6381;45.748;12.106;2023-01-15T07:55:25;7.90;99.90
12632;DHT22;6381;45.748;12.106;2023-01-15T07:57:57;8.00;99.90
12632;DHT22;6381;45.748;12.106;2023-01-15T08:00:27;7.90;99.90
12632;DHT22;6381;45.748;12.106;2023-01-15T08:02:58;8.00;99.90
12632;DHT22;6381;45.748;12.106;2023-01-15T08:05:36;8.20;99.90
12632;DHT22;6381;45.748;12.106;2023-01-15T08:08:15;8.40;99.90
12632;DHT22;6381;45.748;12.106;2023-01-15T08:10:46;8.40;99.90
12632;DHT22;6381;45.748;12.106;2023-01-15T08:13:31;8.50;99.90
12632;DHT22;6381;45.748;12.106;2023-01-15T08:16:27;10.40;99.90
12632;DHT22;6381;45.748;12.106;2023-01-15T08:18:58;8.40;99.90
12632;DHT22;6381;45.748;12.106;2023-01-15T08:21:29;8.40;99.90
12632;DHT22;6381;45.748;12.106;2023-01-15T08:24:03;8.30;99.90
12632;DHT22;6381;45.748;12.106;2023-01-15T08:26:34;8.20;99.90
12632;DHT22;6381;45.748;12.106;2023-01-15T08:29:06;8.10;99.90
12632;DHT22;6381;45.748;12.106;2023-01-15T08:31:36;8.20;99.90
12632;DHT22;6381;45.748;12.106;2023-01-15T08:34:09;8.10;99.90
12632;DHT22;6381;45.748;12.106;2023-01-15T08:36:42;8.20;99.90
12632;DHT22;6381;45.748;12.106;2023-01-15T08:39:16;8.20;99.90
12632;DHT22;6381;45.748;12.106;2023-01-15T08:41:47;8.20;99.90
12632;DHT22;6381;45.748;12.106;2023-01-15T08:44:18;8.50;99.90
12632;DHT22;6381;45.748;12.106;2023-01-15T08:46:50;8.50;99.90
12632;DHT22;6381;45.748;12.106;2023-01-15T08:49:21;8.40;99.90
12632;DHT22;6381;45.748;12.106;2023-01-15T08:51:52;8.40;99.90
12632;DHT22;6381;45.748;12.106;2023-01-15T08:54:26;8.50;99.90
12632;DHT22;6381;45.748;12.106;2023-01-15T08:57:02;8.60;99.90
12632;DHT22;6381;45.748;12.106;2023-01-15T08:59:34;8.70;99.90
12632;DHT22;6381;45.748;12.106;2023-01-15T09:02:06;8.80;99.90
12632;DHT22;6381;45.748;12.106;2023-01-15T09:04:37;8.70;99.90
12632;DHT22;6381;45.748;12.106;2023-01-15T09:07:09;8.70;99.90
12632;DHT22;6381;45.748;12.106;2023-01-15T09:10:02;8.80;99.90
12632;DHT22;6381;45.748;12.106;2023-01-15T09:12:33;8.90;99.90
12632;DHT22;6381;45.748;12.106;2023-01-15T09:15:04;8.70;99.90
12632;DHT22;6381;45.748;12.106;2023-01-15T09:17:37;8.80;99.90
12632;DHT22;6381;45.748;12.106;2023-01-15T09:20:12;8.80;99.90
12632;DHT22;6381;45.748;12.106;2023-01-15T09:22:45;8.80;99.90
12632;DHT22;6381;45.748;12.106;2023-01-15T09:25:21;8.80;99.90
12632;DHT22;6381;45.748;12.106;2023-01-15T09:27:54;8.90;99.90
12632;DHT22;6381;45.748;12.106;2023-01-15T09:30:25;9.00;99.90
12632;DHT22;6381;45.748;12.106;2023-01-15T09:32:56;9.00;99.90
12632;DHT22;6381;45.748;12.106;2023-01-15T09:35:26;8.80;99.90
12632;DHT22;6381;45.748;12.106;2023-01-15T09:37:57;8.90;99.90
12632;DHT22;6381;45.748;12.106;2023-01-15T09:40:43;8.80;99.90
12632;DHT22;6381;45.748;12.106;2023-01-15T09:43:24;8.80;99.90
12632;DHT22;6381;45.748;12.106;2023-01-15T09:45:59;8.80;99.90
12632;DHT22;6381;45.748;12.106;2023-01-15T09:48:44;8.60;99.90
12632;DHT22;6381;45.748;12.106;2023-01-15T09:51:20;8.80;99.90
12632;DHT22;6381;45.748;12.106;2023-01-15T09:54:11;8.70;99.90
12632;DHT22;6381;45.748;12.106;2023-01-15T09:56:46;8.70;99.90
12632;DHT22;6381;45.748;12.106;2023-01-15T09:59:21;8.60;99.90
12632;DHT22;6381;45.748;12.106;2023-01-15T10:01:58;8.70;99.90
12632;DHT22;6381;45.748;12.106;2023-01-15T10:04:35;8.50;99.90
12632;DHT22;6381;45.748;12.106;2023-01-15T10:07:12;8.70;99.90
12632;DHT22;6381;45.748;12.106;2023-01-15T10:09:50;8.80;99.90
12632;DHT22;6381;45.748;12.106;2023-01-15T10:12:27;8.80;99.90
12632;DHT22;6381;45.748;12.106;2023-01-15T10:15:16;8.80;99.90
12632;DHT22;6381;45.748;12.106;2023-01-15T10:17:50;8.70;99.90
12632;DHT22;6381;45.748;12.106;2023-01-15T10:20:47;8.80;99.90
12632;DHT22;6381;45.748;12.106;2023-01-15T10:23:32;8.80;99.90
12632;DHT22;6381;45.748;12.106;2023-01-15T10:26:12;9.00;99.90
12632;DHT22;6381;45.748;12.106;2023-01-15T10:28:58;9.00;99.90
12632;DHT22;6381;45.748;12.106;2023-01-15T10:31:42;8.80;99.90
12632;DHT22;6381;45.748;12.106;2023-01-15T10:37:16;8.70;99.90
12632;DHT22;6381;45.748;12.106;2023-01-15T10:39:54;8.80;99.90
12632;DHT22;6381;45.748;12.106;2023-01-15T10:42:37;8.90;99.90
12632;DHT22;6381;45.748;12.106;2023-01-15T10:45:17;8.70;99.90
12632;DHT22;6381;45.748;12.106;2023-01-15T10:47:52;8.90;99.90
12632;DHT22;6381;45.748;12.106;2023-01-15T10:50:26;8.80;99.90
12632;DHT22;6381;45.748;12.106;2023-01-15T10:53:05;8.90;99.90
12632;DHT22;6381;45.748;12.106;2023-01-15T10:55:41;9.10;99.90
12632;DHT22;6381;45.748;12.106;2023-01-15T10:58:19;9.00;99.90
12632;DHT22;6381;45.748;12.106;2023-01-15T11:00:57;8.90;99.90
12632;DHT22;6381;45.748;12.106;2023-01-15T11:03:33;8.80;99.90
12632;DHT22;6381;45.748;12.106;2023-01-15T11:06:11;8.80;99.90
12632;DHT22;6381;45.748;12.106;2023-01-15T11:08:45;8.70;99.90
12632;DHT22;6381;45.748;12.106;2023-01-15T11:11:40;8.80;99.90
12632;DHT22;6381;45.748;12.106;2023-01-15T11:14:34;8.80;99.90
12632;DHT22;6381;45.748;12.106;2023-01-15T11:17:24;9.00;99.90
12632;DHT22;6381;45.748;12.106;2023-01-15T11:20:24;8.90;99.90
12632;DHT22;6381;45.748;12.106;2023-01-15T11:22:56;8.90;99.90
12632;DHT22;6381;45.748;12.106;2023-01-15T11:25:29;8.90;99.90
12632;DHT22;6381;45.748;12.106;2023-01-15T11:28:04;9.00;99.90
12632;DHT22;6381;45.748;12.106;2023-01-15T11:30:36;9.20;99.90
12632;DHT22;6381;45.748;12.106;2023-01-15T11:33:27;9.10;99.90
12632;DHT22;6381;45.748;12.106;2023-01-15T11:36:01;9.00;99.90
12632;DHT22;6381;45.748;12.106;2023-01-15T11:38:42;9.00;99.90
12632;DHT22;6381;45.748;12.106;2023-01-15T11:41:19;9.00;99.90
12632;DHT22;6381;45.748;12.106;2023-01-15T11:43:55;8.90;99.90
12632;DHT22;6381;45.748;12.106;2023-01-15T11:46:45;8.90;99.90
12632;DHT22;6381;45.748;12.106;2023-01-15T11:49:34;8.80;99.90
12632;DHT22;6381;45.748;12.106;2023-01-15T11:52:23;9.00;99.90
12632;DHT22;6381;45.748;12.106;2023-01-15T11:54:54;8.90;99.90
12632;DHT22;6381;45.748;12.106;2023-01-15T11:57:26;9.00;99.90
12632;DHT22;6381;45.748;12.106;2023-01-15T11:59:57;9.00;99.90
12632;DHT22;6381;45.748;12.106;2023-01-15T12:02:33;9.10;99.90
12632;DHT22;6381;45.748;12.106;2023-01-15T12:05:15;9.30;99.90
12632;DHT22;6381;45.748;12.106;2023-01-15T12:07:48;9.30;99.90
12632;DHT22;6381;45.748;12.106;2023-01-15T12:10:21;9.30;99.90
12632;DHT22;6381;45.748;12.106;2023-01-15T12:13:28;9.30;99.90
12632;DHT22;6381;45.748;12.106;2023-01-15T12:16:03;9.30;99.90
12632;DHT22;6381;45.748;12.106;2023-01-15T12:18:48;9.30;99.90
12632;DHT22;6381;45.748;12.106;2023-01-15T12:24:32;9.70;99.90
12632;DHT22;6381;45.748;12.106;2023-01-15T12:27:18;9.80;99.90
12632;DHT22;6381;45.748;12.106;2023-01-15T12:29:56;9.80;99.90
12632;DHT22;6381;45.748;12.106;2023-01-15T12:32:32;9.70;99.90
12632;DHT22;6381;45.748;12.106;2023-01-15T12:35:09;9.80;99.90
12632;DHT22;6381;45.748;12.106;2023-01-15T12:37:49;9.80;99.90
12632;DHT22;6381;45.748;12.106;2023-01-15T12:40:27;9.70;99.90
12632;DHT22;6381;45.748;12.106;2023-01-15T12:42:59;9.60;99.90
12632;DHT22;6381;45.748;12.106;2023-01-15T12:45:50;9.70;99.90
12632;DHT22;6381;45.748;12.106;2023-01-15T12:48:26;10.10;99.90
12632;DHT22;6381;45.748;12.106;2023-01-15T12:51:00;9.50;99.90
12632;DHT22;6381;45.748;12.106;2023-01-15T12:53:38;9.80;99.90
12632;DHT22;6381;45.748;12.106;2023-01-15T12:56:16;9.70;99.90
12632;DHT22;6381;45.748;12.106;2023-01-15T12:58:49;9.70;99.90
12632;DHT22;6381;45.748;12.106;2023-01-15T13:01:28;9.70;99.90
12632;DHT22;6381;45.748;12.106;2023-01-15T13:04:10;9.90;99.90
12632;DHT22;6381;45.748;12.106;2023-01-15T13:06:43;9.80;99.90
12632;DHT22;6381;45.748;12.106;2023-01-15T13:09:27;9.70;99.90
12632;DHT22;6381;45.748;12.106;2023-01-15T13:12:01;9.60;99.90
12632;DHT22;6381;45.748;12.106;2023-01-15T13:14:31;9.60;99.90
12632;DHT22;6381;45.748;12.106;2023-01-15T13:17:06;9.70;99.90
12632;DHT22;6381;45.748;12.106;2023-01-15T13:19:44;9.70;99.90
12632;DHT22;6381;45.748;12.106;2023-01-15T13:22:23;9.80;99.90
12632;DHT22;6381;45.748;12.106;2023-01-15T13:28:15;9.70;99.90
12632;DHT22;6381;45.748;12.106;2023-01-15T13:30:59;9.60;99.90
12632;DHT22;6381;45.748;12.106;2023-01-15T13:33:34;9.80;99.90
12632;DHT22;6381;45.748;12.106;2023-01-15T13:36:12;9.80;99.90
12632;DHT22;6381;45.748;12.106;2023-01-15T13:38:47;9.70;99.90
12632;DHT22;6381;45.748;12.106;2023-01-15T13:41:23;9.60;99.90
12632;DHT22;6381;45.748;12.106;2023-01-15T13:44:15;9.60;99.90
12632;DHT22;6381;45.748;12.106;2023-01-15T13:46:59;9.70;99.90
12632;DHT22;6381;45.748;12.106;2023-01-15T13:49:33;9.90;99.90
12632;DHT22;6381;45.748;12.106;2023-01-15T13:52:06;9.80;99.90
12632;DHT22;6381;45.748;12.106;2023-01-15T13:54:41;9.90;99.90
12632;DHT22;6381;45.748;12.106;2023-01-15T13:57:23;9.80;99.90
12632;DHT22;6381;45.748;12.106;2023-01-15T13:59:55;9.80;99.90
12632;DHT22;6381;45.748;12.106;2023-01-15T14:02:27;9.80;99.90
12632;DHT22;6381;45.748;12.106;2023-01-15T14:04:58;9.50;99.90
12632;DHT22;6381;45.748;12.106;2023-01-15T14:07:33;9.50;99.90
12632;DHT22;6381;45.748;12.106;2023-01-15T14:10:09;9.70;99.90
12632;DHT22;6381;45.748;12.106;2023-01-15T14:12:59;9.60;99.90
12632;DHT22;6381;45.748;12.106;2023-01-15T14:15:42;9.90;99.90
12632;DHT22;6381;45.748;12.106;2023-01-15T14:18:34;9.60;99.90
12632;DHT22;6381;45.748;12.106;2023-01-15T14:21:16;9.60;99.90
12632;DHT22;6381;45.748;12.106;2023-01-15T14:24:04;9.50;99.90
12632;DHT22;6381;45.748;12.106;2023-01-15T14:26:46;9.40;99.90
12632;DHT22;6381;45.748;12.106;2023-01-15T14:29:49;9.50;99.90
12632;DHT22;6381;45.748;12.106;2023-01-15T14:32:29;9.40;99.90
12632;DHT22;6381;45.748;12.106;2023-01-15T14:35:01;9.40;99.90
12632;DHT22;6381;45.748;12.106;2023-01-15T14:37:39;9.50;99.90
12632;DHT22;6381;45.748;12.106;2023-01-15T14:40:21;9.20;99.90
12632;DHT22;6381;45.748;12.106;2023-01-15T14:42:55;9.10;99.90
12632;DHT22;6381;45.748;12.106;2023-01-15T14:45:36;9.10;99.90
12632;DHT22;6381;45.748;12.106;2023-01-15T14:48:18;9.10;99.90
12632;DHT22;6381;45.748;12.106;2023-01-15T14:50:51;9.20;99.90
12632;DHT22;6381;45.748;12.106;2023-01-15T14:53:30;9.10;99.90
12632;DHT22;6381;45.748;12.106;2023-01-15T14:56:10;9.20;99.90
12632;DHT22;6381;45.748;12.106;2023-01-15T14:58:48;9.10;99.90
12632;DHT22;6381;45.748;12.106;2023-01-15T15:01:42;9.00;99.90
12632;DHT22;6381;45.748;12.106;2023-01-15T15:04:26;9.30;99.90
12632;DHT22;6381;45.748;12.106;2023-01-15T15:07:03;9.40;99.90
12632;DHT22;6381;45.748;12.106;2023-01-15T15:09:38;9.20;99.90
12632;DHT22;6381;45.748;12.106;2023-01-15T15:12:20;9.10;99.90
12632;DHT22;6381;45.748;12.106;2023-01-15T15:14:59;9.20;99.90
12632;DHT22;6381;45.748;12.106;2023-01-15T15:17:38;9.20;99.90
12632;DHT22;6381;45.748;12.106;2023-01-15T15:20:35;9.10;99.90
12632;DHT22;6381;45.748;12.106;2023-01-15T15:23:12;9.20;99.90
12632;DHT22;6381;45.748;12.106;2023-01-15T15:25:47;9.30;99.90
12632;DHT22;6381;45.748;12.106;2023-01-15T15:28:24;9.50;99.90
12632;DHT22;6381;45.748;12.106;2023-01-15T15:30:55;9.20;99.90
12632;DHT22;6381;45.748;12.106;2023-01-15T15:33:38;9.00;99.90
12632;DHT22;6381;45.748;12.106;2023-01-15T15:36:09;9.00;99.90
12632;DHT22;6381;45.748;12.106;2023-01-15T15:38:51;9.00;99.90
12632;DHT22;6381;45.748;12.106;2023-01-15T15:41:25;9.00;99.90
12632;DHT22;6381;45.748;12.106;2023-01-15T15:44:17;9.00;99.90
12632;DHT22;6381;45.748;12.106;2023-01-15T15:47:18;8.90;99.90
12632;DHT22;6381;45.748;12.106;2023-01-15T15:50:18;9.00;99.90
12632;DHT22;6381;45.748;12.106;2023-01-15T15:52:49;8.90;99.90
12632;DHT22;6381;45.748;12.106;2023-01-15T15:55:22;8.90;99.90
12632;DHT22;6381;45.748;12.106;2023-01-15T15:57:56;9.00;99.90
12632;DHT22;6381;45.748;12.106;2023-01-15T16:00:31;9.00;99.90
12632;DHT22;6381;45.748;12.106;2023-01-15T16:03:05;8.80;99.90
12632;DHT22;6381;45.748;12.106;2023-01-15T16:05:38;9.00;99.90
12632;DHT22;6381;45.748;12.106;2023-01-15T16:08:18;8.90;99.90
12632;DHT22;6381;45.748;12.106;2023-01-15T16:10:51;8.90;99.90
12632;DHT22;6381;45.748;12.106;2023-01-15T16:13:24;9.00;99.90
12632;DHT22;6381;45.748;12.106;2023-01-15T16:15:58;8.80;99.90
12632;DHT22;6381;45.748;12.106;2023-01-15T16:18:33;8.70;99.90
12632;DHT22;6381;45.748;12.106;2023-01-15T16:21:10;8.80;99.90
12632;DHT22;6381;45.748;12.106;2023-01-15T16:23:57;8.80;99.90
12632;DHT22;6381;45.748;12.106;2023-01-15T16:26:32;8.70;99.90
12632;DHT22;6381;45.748;12.106;2023-01-15T16:29:13;8.80;99.90
12632;DHT22;6381;45.748;12.106;2023-01-15T16:31:45;8.90;99.90
12632;DHT22;6381;45.748;12.106;2023-01-15T16:34:18;9.00;99.90
12632;DHT22;6381;45.748;12.106;2023-01-15T16:36:51;8.80;99.90
12632;DHT22;6381;45.748;12.106;2023-01-15T16:39:24;8.80;99.90
12632;DHT22;6381;45.748;12.106;2023-01-15T16:41:56;8.90;99.90
12632;DHT22;6381;45.748;12.106;2023-01-15T16:44:38;8.70;99.90
12632;DHT22;6381;45.748;12.106;2023-01-15T16:47:22;8.80;99.90
12632;DHT22;6381;45.748;12.106;2023-01-15T16:53:05;8.90;99.90
12632;DHT22;6381;45.748;12.106;2023-01-15T16:55:41;8.90;99.90